createdAt,value
2019-03-19T00:00:02.786Z,1013.76
2019-03-19T00:01:02.779Z,1013.81
2019-03-19T00:02:02.795Z,1013.73
2019-03-19T00:03:02.795Z,1013.77
2019-03-19T00:04:02.784Z,1013.78
2019-03-19T00:05:02.781Z,1013.74
2019-03-19T00:06:02.786Z,1013.78
2019-03-19T00:07:02.790Z,1013.76
2019-03-19T00:08:02.821Z,1013.70
2019-03-19T00:09:02.777Z,1013.68
2019-03-19T00:10:02.779Z,1013.78
2019-03-19T00:11:02.781Z,1013.77
2019-03-19T00:12:02.780Z,1013.78
2019-03-19T00:13:02.787Z,1013.78
2019-03-19T00:14:02.773Z,1013.75
2019-03-19T00:15:02.772Z,1013.84
2019-03-19T00:16:02.781Z,1013.83
2019-03-19T00:17:02.779Z,1013.80
2019-03-19T00:18:02.781Z,1013.84
2019-03-19T00:19:02.771Z,1013.88
2019-03-19T00:20:02.764Z,1013.89
2019-03-19T00:21:02.760Z,1013.87
2019-03-19T00:22:02.761Z,1013.92
2019-03-19T00:23:02.771Z,1013.90
2019-03-19T00:24:02.766Z,1013.89
2019-03-19T00:25:02.767Z,1013.88
2019-03-19T00:26:02.767Z,1013.89
2019-03-19T00:27:02.767Z,1013.87
2019-03-19T00:28:02.776Z,1013.88
2019-03-19T00:29:02.762Z,1013.84
2019-03-19T00:30:02.778Z,1013.85
2019-03-19T00:31:02.782Z,1013.88
2019-03-19T00:32:02.785Z,1013.84
2019-03-19T00:33:02.795Z,1013.90
2019-03-19T00:34:02.783Z,1013.92
2019-03-19T00:35:02.796Z,1013.92
2019-03-19T00:36:02.788Z,1013.92
2019-03-19T00:37:02.801Z,1013.88
2019-03-19T00:38:02.800Z,1013.93
2019-03-19T00:39:02.785Z,1013.90
2019-03-19T00:40:02.789Z,1013.92
2019-03-19T00:41:02.798Z,1013.89
2019-03-19T00:42:02.797Z,1013.97
2019-03-19T00:43:02.799Z,1013.96
2019-03-19T00:44:02.804Z,1013.92
2019-03-19T00:45:02.791Z,1013.99
2019-03-19T00:46:02.791Z,1013.95
2019-03-19T00:47:02.790Z,1013.90
2019-03-19T00:48:03.254Z,1014.01
2019-03-19T00:49:02.812Z,1013.99
2019-03-19T00:50:02.809Z,1014.06
2019-03-19T00:51:02.803Z,1014.03
2019-03-19T00:52:02.791Z,1014.03
2019-03-19T00:53:02.801Z,1013.99
2019-03-19T00:54:02.787Z,1014.01
2019-03-19T00:55:02.786Z,1013.94
2019-03-19T00:56:02.784Z,1013.94
2019-03-19T00:57:02.781Z,1013.98
2019-03-19T00:58:02.782Z,1013.92
2019-03-19T00:59:02.792Z,1013.92
2019-03-19T01:00:02.784Z,1013.91
2019-03-19T01:01:02.787Z,1013.92
2019-03-19T01:02:02.793Z,1013.94
2019-03-19T01:03:02.802Z,1014.00
2019-03-19T01:04:02.815Z,1013.94
2019-03-19T01:05:02.813Z,1013.97
2019-03-19T01:06:02.815Z,1014.03
2019-03-19T01:07:02.817Z,1013.99
2019-03-19T01:08:02.825Z,1014.02
2019-03-19T01:09:02.840Z,1013.99
2019-03-19T01:10:02.830Z,1014.04
2019-03-19T01:11:02.855Z,1014.01
2019-03-19T01:12:02.848Z,1014.02
2019-03-19T01:13:02.842Z,1014.02
2019-03-19T01:14:02.872Z,1014.04
2019-03-19T01:15:02.875Z,1014.06
2019-03-19T01:16:02.891Z,1014.04
2019-03-19T01:17:02.914Z,1014.06
2019-03-19T01:18:02.912Z,1014.06
2019-03-19T01:19:02.925Z,1014.06
2019-03-19T01:20:02.929Z,1014.06
2019-03-19T01:21:02.934Z,1014.08
2019-03-19T01:22:02.940Z,1014.09
2019-03-19T01:23:02.960Z,1014.02
2019-03-19T01:24:02.931Z,1014.09
2019-03-19T01:25:02.938Z,1014.07
2019-03-19T01:26:02.971Z,1014.07
2019-03-19T01:27:02.977Z,1014.05
2019-03-19T01:28:02.965Z,1014.05
2019-03-19T01:29:02.983Z,1014.07
2019-03-19T01:30:03.015Z,1014.05
2019-03-19T01:31:03.013Z,1014.05
2019-03-19T01:32:03.026Z,1014.03
2019-03-19T01:33:03.043Z,1014.02
2019-03-19T01:34:03.054Z,1014.06
2019-03-19T01:35:03.077Z,1014.07
2019-03-19T01:36:03.069Z,1014.07
2019-03-19T01:37:03.080Z,1013.99
2019-03-19T01:38:03.091Z,1014.07
2019-03-19T01:39:03.098Z,1014.08
2019-03-19T01:40:03.119Z,1014.02
2019-03-19T01:41:03.122Z,1014.01
2019-03-19T01:42:03.128Z,1013.99
2019-03-19T01:43:03.123Z,1014.01
2019-03-19T01:44:03.130Z,1014.00
2019-03-19T01:45:03.141Z,1013.94
2019-03-19T01:46:03.182Z,1013.95
2019-03-19T01:47:03.133Z,1014.03
2019-03-19T01:48:03.147Z,1013.99
2019-03-19T01:49:03.153Z,1013.99
2019-03-19T01:50:03.147Z,1013.97
2019-03-19T01:51:03.130Z,1013.98
2019-03-19T01:52:03.144Z,1013.96
2019-03-19T01:53:03.136Z,1014.03
2019-03-19T01:54:03.144Z,1014.04
2019-03-19T01:55:03.152Z,1014.05
2019-03-19T01:56:05.503Z,1014.05
2019-03-19T01:57:03.150Z,1014.07
2019-03-19T01:58:03.159Z,1014.03
2019-03-19T01:59:03.175Z,1014.08
2019-03-19T02:00:03.201Z,1014.12
2019-03-19T02:01:03.180Z,1014.13
2019-03-19T02:02:03.181Z,1014.12
2019-03-19T02:03:03.185Z,1014.09
2019-03-19T02:04:03.183Z,1014.06
2019-03-19T02:05:03.192Z,1014.08
2019-03-19T02:06:03.199Z,1014.10
2019-03-19T02:07:03.190Z,1014.05
2019-03-19T02:08:03.187Z,1014.02
2019-03-19T02:09:03.185Z,1014.01
2019-03-19T02:10:03.187Z,1014.00
2019-03-19T02:11:03.193Z,1013.99
2019-03-19T02:12:03.201Z,1014.00
2019-03-19T02:13:03.205Z,1013.99
2019-03-19T02:14:03.209Z,1013.99
2019-03-19T02:15:03.209Z,1013.98
2019-03-19T02:16:03.225Z,1013.94
2019-03-19T02:17:03.220Z,1013.91
2019-03-19T02:18:03.234Z,1013.99
2019-03-19T02:19:03.232Z,1013.95
2019-03-19T02:20:03.232Z,1013.94
2019-03-19T02:21:03.239Z,1014.02
2019-03-19T02:22:03.222Z,1013.95
2019-03-19T02:23:04.642Z,1013.96
2019-03-19T02:24:03.241Z,1013.97
2019-03-19T02:25:03.239Z,1013.99
2019-03-19T02:26:03.275Z,1013.89
2019-03-19T02:27:03.254Z,1013.97
2019-03-19T02:28:03.258Z,1013.94
2019-03-19T02:29:03.265Z,1013.97
2019-03-19T02:30:03.275Z,1014.00
2019-03-19T02:31:03.302Z,1014.00
2019-03-19T02:32:03.290Z,1013.98
2019-03-19T02:33:03.313Z,1013.97
2019-03-19T02:34:03.291Z,1013.99
2019-03-19T02:35:03.286Z,1013.94
2019-03-19T02:36:03.296Z,1013.97
2019-03-19T02:37:03.294Z,1013.92
2019-03-19T02:38:03.291Z,1013.98
2019-03-19T02:39:03.303Z,1014.03
2019-03-19T02:40:03.294Z,1013.96
2019-03-19T02:41:03.322Z,1014.00
2019-03-19T02:42:03.303Z,1013.98
2019-03-19T02:43:03.297Z,1014.03
2019-03-19T02:44:03.303Z,1014.00
2019-03-19T02:45:03.309Z,1014.02
2019-03-19T02:46:03.332Z,1013.99
2019-03-19T02:47:03.320Z,1013.99
2019-03-19T02:48:03.327Z,1013.97
2019-03-19T02:49:03.338Z,1013.99
2019-03-19T02:50:03.346Z,1013.96
2019-03-19T02:51:03.376Z,1014.03
2019-03-19T02:52:03.343Z,1014.01
2019-03-19T02:53:03.361Z,1014.08
2019-03-19T02:54:03.349Z,1014.09
2019-03-19T02:55:03.342Z,1014.09
2019-03-19T02:56:03.357Z,1014.06
2019-03-19T02:57:03.364Z,1014.05
2019-03-19T02:58:03.358Z,1014.09
2019-03-19T02:59:03.354Z,1014.14
2019-03-19T03:00:03.357Z,1014.19
2019-03-19T03:01:03.358Z,1014.16
2019-03-19T03:02:03.792Z,1014.18
2019-03-19T03:03:03.379Z,1014.19
2019-03-19T03:04:03.382Z,1014.22
2019-03-19T03:05:03.386Z,1014.22
2019-03-19T03:06:03.401Z,1014.27
2019-03-19T03:07:03.409Z,1014.23
2019-03-19T03:08:03.406Z,1014.25
2019-03-19T03:09:03.410Z,1014.26
2019-03-19T03:10:03.410Z,1014.24
2019-03-19T03:11:03.406Z,1014.29
2019-03-19T03:12:03.430Z,1014.29
2019-03-19T03:13:03.411Z,1014.34
2019-03-19T03:14:03.430Z,1014.28
2019-03-19T03:15:03.419Z,1014.35
2019-03-19T03:16:03.424Z,1014.31
2019-03-19T03:17:03.431Z,1014.37
2019-03-19T03:18:03.418Z,1014.41
2019-03-19T03:19:03.423Z,1014.43
2019-03-19T03:20:03.428Z,1014.47
2019-03-19T03:21:03.470Z,1014.50
2019-03-19T03:22:03.482Z,1014.47
2019-03-19T03:23:03.447Z,1014.52
2019-03-19T03:24:03.447Z,1014.48
2019-03-19T03:25:03.464Z,1014.50
2019-03-19T03:26:03.457Z,1014.58
2019-03-19T03:27:03.478Z,1014.59
2019-03-19T03:28:03.462Z,1014.57
2019-03-19T03:29:03.464Z,1014.68
2019-03-19T03:30:03.473Z,1014.61
2019-03-19T03:31:03.477Z,1014.69
2019-03-19T03:32:03.515Z,1014.68
2019-03-19T03:33:03.484Z,1014.70
2019-03-19T03:34:03.484Z,1014.62
2019-03-19T03:35:03.485Z,1014.69
2019-03-19T03:36:03.488Z,1014.72
2019-03-19T03:37:03.506Z,1014.74
2019-03-19T03:38:03.505Z,1014.71
2019-03-19T03:39:03.498Z,1014.82
2019-03-19T03:40:03.507Z,1014.72
2019-03-19T03:41:03.506Z,1014.72
2019-03-19T03:42:03.506Z,1014.74
2019-03-19T03:43:03.526Z,1014.80
2019-03-19T03:44:03.522Z,1014.77
2019-03-19T03:45:03.528Z,1014.74
2019-03-19T03:46:03.553Z,1014.76
2019-03-19T03:47:03.537Z,1014.78
2019-03-19T03:48:03.561Z,1014.81
2019-03-19T03:49:03.543Z,1014.80
2019-03-19T03:50:03.561Z,1014.81
2019-03-19T03:51:03.548Z,1014.88
2019-03-19T03:52:03.561Z,1014.82
2019-03-19T03:53:03.561Z,1014.88
2019-03-19T03:54:03.548Z,1014.92
2019-03-19T03:55:03.543Z,1014.85
2019-03-19T03:56:03.551Z,1014.88
2019-03-19T03:57:03.560Z,1015.03
2019-03-19T03:58:03.581Z,1015.02
2019-03-19T03:59:03.581Z,1014.98
2019-03-19T04:00:03.558Z,1015.03
2019-03-19T04:01:03.571Z,1015.00
2019-03-19T04:02:03.571Z,1015.00
2019-03-19T04:03:03.578Z,1015.06
2019-03-19T04:04:03.597Z,1015.08
2019-03-19T04:05:03.593Z,1015.10
2019-03-19T04:06:03.601Z,1015.15
2019-03-19T04:07:03.702Z,1015.14
2019-03-19T04:08:03.686Z,1015.16
2019-03-19T04:09:03.718Z,1015.17
2019-03-19T04:10:03.713Z,1015.17
2019-03-19T04:11:03.627Z,1015.17
2019-03-19T04:12:03.713Z,1015.16
2019-03-19T04:13:03.665Z,1015.22
2019-03-19T04:14:03.635Z,1015.27
2019-03-19T04:15:03.633Z,1015.24
2019-03-19T04:16:03.636Z,1015.26
2019-03-19T04:17:03.652Z,1015.28
2019-03-19T04:18:03.836Z,1015.22
2019-03-19T04:19:03.659Z,1015.27
2019-03-19T04:20:03.668Z,1015.26
2019-03-19T04:21:03.685Z,1015.27
2019-03-19T04:22:03.677Z,1015.25
2019-03-19T04:23:03.689Z,1015.24
2019-03-19T04:24:03.710Z,1015.26
2019-03-19T04:25:03.702Z,1015.26
2019-03-19T04:26:03.688Z,1015.24
2019-03-19T04:27:15.282Z,1015.27
2019-03-19T04:28:04.694Z,1015.37
2019-03-19T04:29:03.717Z,1015.37
2019-03-19T04:30:03.705Z,1015.34
2019-03-19T04:31:03.709Z,1015.37
2019-03-19T04:32:03.734Z,1015.39
2019-03-19T04:33:03.730Z,1015.37
2019-03-19T04:34:03.757Z,1015.42
2019-03-19T04:35:03.762Z,1015.40
2019-03-19T04:36:03.772Z,1015.39
2019-03-19T04:37:03.755Z,1015.46
2019-03-19T04:38:03.823Z,1015.51
2019-03-19T04:39:03.775Z,1015.50
2019-03-19T04:40:03.771Z,1015.50
2019-03-19T04:41:03.830Z,1015.48
2019-03-19T04:42:03.792Z,1015.52
2019-03-19T04:43:03.814Z,1015.58
2019-03-19T04:44:03.851Z,1015.58
2019-03-19T04:45:03.840Z,1015.59
2019-03-19T04:46:03.826Z,1015.64
2019-03-19T04:47:03.829Z,1015.57
2019-03-19T04:48:03.853Z,1015.58
2019-03-19T04:49:03.863Z,1015.56
2019-03-19T04:50:03.836Z,1015.58
2019-03-19T04:51:03.839Z,1015.54
2019-03-19T04:52:03.848Z,1015.61
2019-03-19T04:53:03.872Z,1015.67
2019-03-19T04:54:03.868Z,1015.71
2019-03-19T04:55:03.886Z,1015.75
2019-03-19T04:56:03.887Z,1015.69
2019-03-19T04:57:03.891Z,1015.76
2019-03-19T04:58:03.898Z,1015.74
2019-03-19T04:59:03.900Z,1015.80
2019-03-19T05:00:03.930Z,1015.80
2019-03-19T05:01:03.912Z,1015.82
2019-03-19T05:02:03.911Z,1015.77
2019-03-19T05:03:03.913Z,1015.80
2019-03-19T05:04:03.914Z,1015.81
2019-03-19T05:05:03.930Z,1015.79
2019-03-19T05:06:03.923Z,1015.79
2019-03-19T05:07:03.935Z,1015.78
2019-03-19T05:08:03.947Z,1015.84
2019-03-19T05:09:03.950Z,1015.80
2019-03-19T05:10:03.983Z,1015.83
2019-03-19T05:11:03.992Z,1015.78
2019-03-19T05:12:03.990Z,1015.84
2019-03-19T05:13:04.027Z,1015.82
2019-03-19T05:14:04.025Z,1015.81
2019-03-19T05:15:04.041Z,1015.83
2019-03-19T05:16:04.057Z,1015.84
2019-03-19T05:17:04.040Z,1015.86
2019-03-19T05:18:04.047Z,1015.85
2019-03-19T05:19:04.053Z,1015.88
2019-03-19T05:20:04.086Z,1015.87
2019-03-19T05:21:04.075Z,1015.82
2019-03-19T05:22:04.088Z,1015.79
2019-03-19T05:23:04.092Z,1015.84
2019-03-19T05:24:04.109Z,1015.90
2019-03-19T05:25:04.114Z,1015.85
2019-03-19T05:26:04.116Z,1015.88
2019-03-19T05:27:04.139Z,1015.92
2019-03-19T05:28:04.140Z,1015.92
2019-03-19T05:29:04.150Z,1015.89
2019-03-19T05:30:04.152Z,1015.94
2019-03-19T05:31:04.163Z,1015.98
2019-03-19T05:32:04.181Z,1015.98
2019-03-19T05:33:04.182Z,1016.03
2019-03-19T05:34:04.189Z,1016.01
2019-03-19T05:35:04.202Z,1016.05
2019-03-19T05:36:04.216Z,1015.99
2019-03-19T05:37:04.223Z,1016.03
2019-03-19T05:38:04.233Z,1016.03
2019-03-19T05:39:04.221Z,1016.07
2019-03-19T05:40:04.231Z,1016.08
2019-03-19T05:41:04.243Z,1016.08
2019-03-19T05:42:04.242Z,1016.17
2019-03-19T05:43:04.245Z,1016.21
2019-03-19T05:44:04.302Z,1016.17
2019-03-19T05:45:04.301Z,1016.14
2019-03-19T05:46:04.271Z,1016.15
2019-03-19T05:47:04.282Z,1016.13
2019-03-19T05:48:04.275Z,1016.08
2019-03-19T05:49:04.295Z,1016.19
2019-03-19T05:50:04.298Z,1016.21
2019-03-19T05:51:04.316Z,1016.17
2019-03-19T05:52:04.316Z,1016.21
2019-03-19T05:53:04.322Z,1016.24
2019-03-19T05:54:04.331Z,1016.26
2019-03-19T05:55:04.346Z,1016.24
2019-03-19T05:56:04.391Z,1016.24
2019-03-19T05:57:04.378Z,1016.20
2019-03-19T05:58:04.371Z,1016.15
2019-03-19T05:59:04.374Z,1016.20
2019-03-19T06:00:04.381Z,1016.22
2019-03-19T06:01:04.421Z,1016.26
2019-03-19T06:02:04.407Z,1016.27
2019-03-19T06:03:04.415Z,1016.31
2019-03-19T06:04:04.443Z,1016.29
2019-03-19T06:05:04.435Z,1016.28
2019-03-19T06:06:04.459Z,1016.30
2019-03-19T06:07:04.438Z,1016.30
2019-03-19T06:08:04.440Z,1016.26
2019-03-19T06:09:04.446Z,1016.29
2019-03-19T06:10:04.455Z,1016.31
2019-03-19T06:11:04.470Z,1016.26
2019-03-19T06:12:04.466Z,1016.33
2019-03-19T06:13:04.471Z,1016.37
2019-03-19T06:14:04.485Z,1016.34
2019-03-19T06:15:04.497Z,1016.36
2019-03-19T06:16:04.541Z,1016.36
2019-03-19T06:17:04.534Z,1016.37
2019-03-19T06:18:04.534Z,1016.33
2019-03-19T06:19:04.541Z,1016.35
2019-03-19T06:20:04.555Z,1016.37
2019-03-19T06:21:04.557Z,1016.39
2019-03-19T06:22:04.567Z,1016.43
2019-03-19T06:23:04.548Z,1016.41
2019-03-19T06:24:04.553Z,1016.47
2019-03-19T06:25:04.584Z,1016.45
2019-03-19T06:26:04.582Z,1016.51
2019-03-19T06:27:04.572Z,1016.52
2019-03-19T06:28:04.570Z,1016.51
2019-03-19T06:29:04.576Z,1016.58
2019-03-19T06:30:04.576Z,1016.58
2019-03-19T06:31:04.608Z,1016.52
2019-03-19T06:32:04.587Z,1016.57
2019-03-19T06:33:04.603Z,1016.55
2019-03-19T06:34:04.597Z,1016.55
2019-03-19T06:35:04.606Z,1016.54
2019-03-19T06:36:04.615Z,1016.58
2019-03-19T06:37:04.613Z,1016.60
2019-03-19T06:38:04.614Z,1016.63
2019-03-19T06:39:04.619Z,1016.62
2019-03-19T06:40:04.620Z,1016.59
2019-03-19T06:41:04.622Z,1016.50
2019-03-19T06:42:04.633Z,1016.55
2019-03-19T06:43:04.621Z,1016.58
2019-03-19T06:44:04.619Z,1016.57
2019-03-19T06:45:04.621Z,1016.62
2019-03-19T06:46:04.638Z,1016.61
2019-03-19T06:47:04.646Z,1016.59
2019-03-19T06:48:04.626Z,1016.62
2019-03-19T06:49:04.627Z,1016.58
2019-03-19T06:50:04.636Z,1016.61
2019-03-19T06:51:04.633Z,1016.65
2019-03-19T06:52:04.644Z,1016.61
2019-03-19T06:53:04.645Z,1016.66
2019-03-19T06:54:04.661Z,1016.63
2019-03-19T06:55:04.635Z,1016.67
2019-03-19T06:56:04.634Z,1016.72
2019-03-19T06:57:04.649Z,1016.69
2019-03-19T06:58:10.959Z,1016.68
2019-03-19T06:59:05.642Z,1016.69
2019-03-19T07:00:04.647Z,1016.70
2019-03-19T07:01:04.670Z,1016.72
2019-03-19T07:02:04.676Z,1016.74
2019-03-19T07:03:04.642Z,1016.78
2019-03-19T07:04:04.647Z,1016.78
2019-03-19T07:05:04.656Z,1016.75
2019-03-19T07:06:04.637Z,1016.78
2019-03-19T07:07:04.650Z,1016.78
2019-03-19T07:08:04.631Z,1016.80
2019-03-19T07:09:04.630Z,1016.75
2019-03-19T07:10:04.633Z,1016.78
2019-03-19T07:11:04.631Z,1016.80
2019-03-19T07:12:04.649Z,1016.79
2019-03-19T07:13:04.630Z,1016.84
2019-03-19T07:14:04.619Z,1016.88
2019-03-19T07:15:04.616Z,1016.94
2019-03-19T07:16:04.614Z,1016.85
2019-03-19T07:17:04.624Z,1016.88
2019-03-19T07:18:04.602Z,1016.94
2019-03-19T07:19:04.595Z,1016.89
2019-03-19T07:20:04.596Z,1016.89
2019-03-19T07:21:04.589Z,1016.83
2019-03-19T07:22:04.579Z,1016.85
2019-03-19T07:23:04.596Z,1016.86
2019-03-19T07:24:04.559Z,1016.88
2019-03-19T07:25:04.556Z,1016.90
2019-03-19T07:26:04.561Z,1016.91
2019-03-19T07:27:04.537Z,1016.95
2019-03-19T07:28:04.533Z,1016.98
2019-03-19T07:29:04.513Z,1016.95
2019-03-19T07:30:04.504Z,1017.02
2019-03-19T07:31:04.495Z,1017.01
2019-03-19T07:32:04.472Z,1017.01
2019-03-19T07:33:04.463Z,1017.02
2019-03-19T07:34:04.426Z,1016.99
2019-03-19T07:35:04.407Z,1016.96
2019-03-19T07:36:06.294Z,1017.02
2019-03-19T07:37:04.357Z,1017.00
2019-03-19T07:38:04.351Z,1016.98
2019-03-19T07:39:04.293Z,1017.00
2019-03-19T07:40:04.269Z,1016.97
2019-03-19T07:41:04.239Z,1017.05
2019-03-19T07:42:04.225Z,1017.00
2019-03-19T07:43:04.229Z,1016.97
2019-03-19T07:44:04.180Z,1016.97
2019-03-19T07:45:04.166Z,1016.99
2019-03-19T07:46:04.152Z,1017.01
2019-03-19T07:47:04.170Z,1016.96
2019-03-19T07:48:04.127Z,1016.96
2019-03-19T07:49:04.097Z,1016.96
2019-03-19T07:50:04.073Z,1017.00
2019-03-19T07:51:04.058Z,1016.99
2019-03-19T07:52:04.036Z,1016.99
2019-03-19T07:53:04.029Z,1017.00
2019-03-19T07:54:04.001Z,1017.02
2019-03-19T07:55:03.980Z,1016.97
2019-03-19T07:56:03.966Z,1016.99
2019-03-19T07:57:03.939Z,1017.04
2019-03-19T07:58:03.966Z,1017.04
2019-03-19T07:59:03.911Z,1017.11
2019-03-19T08:00:03.894Z,1017.10
2019-03-19T08:01:03.895Z,1017.12
2019-03-19T08:02:03.867Z,1017.13
2019-03-19T08:03:03.859Z,1017.14
2019-03-19T08:04:05.064Z,1017.05
2019-03-19T08:05:03.830Z,1017.08
2019-03-19T08:06:03.809Z,1017.13
2019-03-19T08:07:03.793Z,1017.09
2019-03-19T08:08:03.776Z,1017.05
2019-03-19T08:09:03.763Z,1017.11
2019-03-19T08:10:03.817Z,1017.17
2019-03-19T08:11:03.738Z,1017.14
2019-03-19T08:12:03.715Z,1017.17
2019-03-19T08:13:03.703Z,1017.12
2019-03-19T08:14:03.698Z,1017.17
2019-03-19T08:15:03.703Z,1017.17
2019-03-19T08:16:03.665Z,1017.21
2019-03-19T08:17:03.653Z,1017.19
2019-03-19T08:18:03.650Z,1017.22
2019-03-19T08:19:03.644Z,1017.21
2019-03-19T08:20:03.623Z,1017.22
2019-03-19T08:21:03.606Z,1017.23
2019-03-19T08:22:03.595Z,1017.32
2019-03-19T08:23:03.589Z,1017.29
2019-03-19T08:24:03.587Z,1017.31
2019-03-19T08:25:03.565Z,1017.34
2019-03-19T08:26:03.549Z,1017.31
2019-03-19T08:27:03.554Z,1017.35
2019-03-19T08:28:03.525Z,1017.30
2019-03-19T08:29:03.514Z,1017.33
2019-03-19T08:30:03.494Z,1017.26
2019-03-19T08:31:03.473Z,1017.32
2019-03-19T08:32:03.462Z,1017.23
2019-03-19T08:33:03.443Z,1017.34
2019-03-19T08:34:03.446Z,1017.30
2019-03-19T08:35:03.404Z,1017.31
2019-03-19T08:36:09.272Z,1017.30
2019-03-19T08:37:04.370Z,1017.34
2019-03-19T08:38:03.348Z,1017.28
2019-03-19T08:39:03.350Z,1017.32
2019-03-19T08:40:03.319Z,1017.34
2019-03-19T08:41:03.323Z,1017.35
2019-03-19T08:42:03.285Z,1017.29
2019-03-19T08:43:03.260Z,1017.27
2019-03-19T08:44:03.239Z,1017.30
2019-03-19T08:45:03.362Z,1017.33
2019-03-19T08:46:03.196Z,1017.33
2019-03-19T08:47:03.179Z,1017.35
2019-03-19T08:48:03.165Z,1017.33
2019-03-19T08:49:03.161Z,1017.35
2019-03-19T08:50:03.153Z,1017.37
2019-03-19T08:51:03.123Z,1017.36
2019-03-19T08:52:03.135Z,1017.46
2019-03-19T08:53:03.093Z,1017.40
2019-03-19T08:54:03.080Z,1017.44
2019-03-19T08:55:03.074Z,1017.43
2019-03-19T08:56:03.060Z,1017.51
2019-03-19T08:57:03.050Z,1017.49
2019-03-19T08:58:03.019Z,1017.50
2019-03-19T08:59:06.015Z,1017.47
2019-03-19T09:00:02.988Z,1017.48
2019-03-19T09:01:02.961Z,1017.44
2019-03-19T09:02:02.952Z,1017.54
2019-03-19T09:03:02.916Z,1017.50
2019-03-19T09:04:02.894Z,1017.53
2019-03-19T09:05:03.206Z,1017.55
2019-03-19T09:06:02.871Z,1017.59
2019-03-19T09:07:02.843Z,1017.58
2019-03-19T09:08:02.811Z,1017.59
2019-03-19T09:09:02.790Z,1017.63
2019-03-19T09:10:02.776Z,1017.64
2019-03-19T09:11:02.744Z,1017.66
2019-03-19T09:12:02.720Z,1017.63
2019-03-19T09:13:02.696Z,1017.65
2019-03-19T09:14:02.680Z,1017.76
2019-03-19T09:15:02.681Z,1017.71
2019-03-19T09:16:02.633Z,1017.73
2019-03-19T09:17:02.641Z,1017.66
2019-03-19T09:18:02.595Z,1017.65
2019-03-19T09:19:02.560Z,1017.66
2019-03-19T09:20:02.540Z,1017.65
2019-03-19T09:21:02.503Z,1017.63
2019-03-19T09:22:02.475Z,1017.63
2019-03-19T09:23:02.450Z,1017.73
2019-03-19T09:24:02.423Z,1017.77
2019-03-19T09:25:02.398Z,1017.76
2019-03-19T09:26:02.379Z,1017.73
2019-03-19T09:27:02.354Z,1017.76
2019-03-19T09:28:02.330Z,1017.77
2019-03-19T09:29:02.315Z,1017.79
2019-03-19T09:30:02.296Z,1017.73
2019-03-19T09:31:02.283Z,1017.76
2019-03-19T09:32:02.253Z,1017.86
2019-03-19T09:33:02.229Z,1017.85
2019-03-19T09:34:02.214Z,1017.83
2019-03-19T09:35:02.196Z,1017.73
2019-03-19T09:36:02.179Z,1017.86
2019-03-19T09:37:02.165Z,1017.86
2019-03-19T09:38:02.129Z,1017.85
2019-03-19T09:39:02.101Z,1017.86
2019-03-19T09:40:02.081Z,1017.84
2019-03-19T09:41:02.069Z,1017.86
2019-03-19T09:42:02.031Z,1017.89
2019-03-19T09:43:02.022Z,1017.86
2019-03-19T09:44:01.988Z,1017.87
2019-03-19T09:45:01.963Z,1017.89
2019-03-19T09:46:01.969Z,1017.85
2019-03-19T09:47:01.923Z,1017.94
2019-03-19T09:48:01.909Z,1017.83
2019-03-19T09:49:01.890Z,1017.89
2019-03-19T09:50:01.869Z,1017.91
2019-03-19T09:51:01.860Z,1017.88
2019-03-19T09:52:01.828Z,1017.90
2019-03-19T09:53:01.814Z,1017.90
2019-03-19T09:54:01.798Z,1017.93
2019-03-19T09:55:01.785Z,1017.94
2019-03-19T09:56:01.771Z,1017.92
2019-03-19T09:57:01.742Z,1017.95
2019-03-19T09:58:01.721Z,1017.92
2019-03-19T09:59:01.704Z,1017.93
2019-03-19T10:00:01.686Z,1017.87
2019-03-19T10:01:01.674Z,1017.84
2019-03-19T10:02:01.641Z,1017.89
2019-03-19T10:03:01.621Z,1017.83
2019-03-19T10:04:01.624Z,1017.86
2019-03-19T10:05:01.590Z,1017.83
2019-03-19T10:06:13.613Z,1017.89
2019-03-19T10:07:06.309Z,1017.89
2019-03-19T10:08:01.521Z,1017.90
2019-03-19T10:09:01.500Z,1017.90
2019-03-19T10:10:01.484Z,1017.86
2019-03-19T10:11:01.479Z,1017.85
2019-03-19T10:12:01.436Z,1017.87
2019-03-19T10:13:01.460Z,1017.91
2019-03-19T10:14:01.396Z,1017.87
2019-03-19T10:15:01.383Z,1017.93
2019-03-19T10:16:01.387Z,1017.87
2019-03-19T10:17:01.337Z,1017.90
2019-03-19T10:18:01.327Z,1017.89
2019-03-19T10:19:01.305Z,1017.81
2019-03-19T10:20:01.283Z,1017.89
2019-03-19T10:21:01.271Z,1017.90
2019-03-19T10:22:01.269Z,1017.84
2019-03-19T10:23:01.239Z,1017.80
2019-03-19T10:24:01.203Z,1017.91
2019-03-19T10:25:01.213Z,1017.85
2019-03-19T10:26:01.160Z,1017.87
2019-03-19T10:27:01.159Z,1017.88
2019-03-19T10:28:01.119Z,1017.91
2019-03-19T10:29:01.108Z,1017.94
2019-03-19T10:30:01.097Z,1017.92
2019-03-19T10:31:01.129Z,1017.97
2019-03-19T10:32:01.088Z,1017.94
2019-03-19T10:33:01.037Z,1017.96
2019-03-19T10:34:01.020Z,1018.00
2019-03-19T10:35:01.004Z,1017.96
2019-03-19T10:36:01.002Z,1017.97
2019-03-19T10:37:00.999Z,1018.01
2019-03-19T10:38:00.950Z,1017.92
2019-03-19T10:39:00.931Z,1017.87
2019-03-19T10:40:00.920Z,1017.85
2019-03-19T10:41:00.913Z,1017.86
2019-03-19T10:42:00.895Z,1017.96
2019-03-19T10:43:00.884Z,1017.92
2019-03-19T10:44:00.860Z,1017.94
2019-03-19T10:45:00.841Z,1017.96
2019-03-19T10:46:00.818Z,1017.91
2019-03-19T10:47:00.822Z,1017.97
2019-03-19T10:48:00.785Z,1017.87
2019-03-19T10:49:00.779Z,1017.93
2019-03-19T10:50:00.756Z,1017.88
2019-03-19T10:51:00.735Z,1017.83
2019-03-19T10:52:00.739Z,1017.86
2019-03-19T10:53:00.719Z,1017.89
2019-03-19T10:54:00.699Z,1017.88
2019-03-19T10:55:00.685Z,1017.83
2019-03-19T10:56:00.674Z,1017.84
2019-03-19T10:57:00.668Z,1017.83
2019-03-19T10:58:10.709Z,1017.80
2019-03-19T10:59:01.629Z,1017.83
2019-03-19T11:00:00.643Z,1017.74
2019-03-19T11:01:00.626Z,1017.80
2019-03-19T11:02:00.629Z,1017.71
2019-03-19T11:03:00.592Z,1017.73
2019-03-19T11:04:00.577Z,1017.82
2019-03-19T11:05:00.567Z,1017.74
2019-03-19T11:06:00.548Z,1017.75
2019-03-19T11:07:00.536Z,1017.73
2019-03-19T11:08:00.517Z,1017.77
2019-03-19T11:09:00.505Z,1017.77
2019-03-19T11:10:00.485Z,1017.79
2019-03-19T11:11:00.469Z,1017.91
2019-03-19T11:12:00.450Z,1017.95
2019-03-19T11:13:00.463Z,1017.98
2019-03-19T11:14:00.436Z,1017.97
2019-03-19T11:15:00.409Z,1017.97
2019-03-19T11:16:00.392Z,1017.99
2019-03-19T11:17:00.374Z,1018.06
2019-03-19T11:18:00.378Z,1017.94
2019-03-19T11:19:00.363Z,1017.93
2019-03-19T11:20:00.396Z,1018.02
2019-03-19T11:21:00.320Z,1017.95
2019-03-19T11:22:00.327Z,1018.05
2019-03-19T11:23:00.322Z,1018.09
2019-03-19T11:24:00.276Z,1017.99
2019-03-19T11:25:00.351Z,1018.00
2019-03-19T11:26:00.248Z,1017.99
2019-03-19T11:27:00.233Z,1018.00
2019-03-19T11:28:00.234Z,1018.11
2019-03-19T11:29:00.204Z,1018.04
2019-03-19T11:30:00.385Z,1018.02
2019-03-19T11:31:00.177Z,1018.09
2019-03-19T11:32:00.168Z,1018.05
2019-03-19T11:33:00.171Z,1017.99
2019-03-19T11:34:00.132Z,1017.98
2019-03-19T11:35:00.195Z,1018.01
2019-03-19T11:36:00.105Z,1017.94
2019-03-19T11:37:00.091Z,1017.94
2019-03-19T11:38:00.094Z,1017.95
2019-03-19T11:39:00.055Z,1017.96
2019-03-19T11:40:00.035Z,1017.95
2019-03-19T11:41:00.033Z,1018.04
2019-03-19T11:42:00.030Z,1017.96
2019-03-19T11:43:00.053Z,1017.97
2019-03-19T11:43:59.988Z,1018.01
2019-03-19T11:44:59.983Z,1018.04
2019-03-19T11:45:59.962Z,1017.95
2019-03-19T11:46:59.942Z,1017.93
2019-03-19T11:47:59.929Z,1017.97
2019-03-19T11:48:59.915Z,1017.93
2019-03-19T11:49:59.899Z,1017.90
2019-03-19T11:50:59.889Z,1017.90
2019-03-19T11:51:59.862Z,1017.94
2019-03-19T11:52:59.841Z,1017.91
2019-03-19T11:53:59.842Z,1017.92
2019-03-19T11:54:59.823Z,1017.96
2019-03-19T11:55:59.804Z,1017.94
2019-03-19T11:56:59.792Z,1017.90
2019-03-19T11:57:59.780Z,1017.90
2019-03-19T11:58:59.775Z,1017.92
2019-03-19T12:00:10.426Z,1017.86
2019-03-19T12:01:00.732Z,1017.91
2019-03-19T12:01:59.717Z,1017.88
2019-03-19T12:03:10.834Z,1017.87
2019-03-19T12:04:00.704Z,1017.92
2019-03-19T12:04:59.679Z,1017.92